createdAt,value
2022-07-25T00:01:45.652Z,4.43
2022-07-25T00:04:14.343Z,4.60
2022-07-25T00:06:42.609Z,4.30
2022-07-25T00:09:10.054Z,4.77
2022-07-25T00:11:37.003Z,5.03
2022-07-25T00:14:04.816Z,4.43
2022-07-25T00:16:32.121Z,4.67
2022-07-25T00:18:59.600Z,4.80
2022-07-25T00:21:26.519Z,5.20
2022-07-25T00:23:53.276Z,5.00
2022-07-25T00:26:19.996Z,4.77
2022-07-25T00:28:46.701Z,4.57
2022-07-25T00:31:13.533Z,4.83
2022-07-25T00:33:41.230Z,4.70
2022-07-25T00:36:09.053Z,4.67
2022-07-25T00:38:36.192Z,5.17
2022-07-25T00:41:03.897Z,4.57
2022-07-25T00:43:30.901Z,4.67
2022-07-25T00:45:58.745Z,5.20
2022-07-25T00:48:27.391Z,5.23
2022-07-25T00:50:55.594Z,5.03
2022-07-25T00:53:23.899Z,4.67
2022-07-25T00:55:51.324Z,5.60
2022-07-25T00:58:18.881Z,4.87
2022-07-25T01:00:46.128Z,4.53
2022-07-25T01:03:13.120Z,4.70
2022-07-25T01:05:40.057Z,5.33
2022-07-25T01:08:07.456Z,4.90
2022-07-25T01:10:34.704Z,5.17
2022-07-25T01:13:01.514Z,4.87
2022-07-25T01:15:28.519Z,5.60
2022-07-25T01:17:55.521Z,5.53
2022-07-25T01:20:24.103Z,5.33
2022-07-25T01:22:51.457Z,5.13
2022-07-25T01:25:19.443Z,5.73
2022-07-25T01:27:52.730Z,5.97
2022-07-25T01:30:22.472Z,5.40
2022-07-25T01:32:49.305Z,5.17
2022-07-25T01:35:16.265Z,5.33
2022-07-25T01:37:45.472Z,5.00
2022-07-25T01:40:13.794Z,4.97
2022-07-25T01:42:40.686Z,5.07
2022-07-25T01:45:08.138Z,4.97
2022-07-25T01:47:34.927Z,5.10
2022-07-25T01:50:01.714Z,4.93
2022-07-25T01:52:28.438Z,4.57
2022-07-25T01:54:55.212Z,5.00
2022-07-25T01:57:23.357Z,4.93
2022-07-25T01:59:57.352Z,5.17
2022-07-25T02:02:24.055Z,5.47
2022-07-25T02:04:50.847Z,5.13
2022-07-25T02:07:17.682Z,5.43
2022-07-25T02:09:44.402Z,5.23
2022-07-25T02:12:11.292Z,5.70
2022-07-25T02:14:38.193Z,5.60
2022-07-25T02:17:05.108Z,5.80
2022-07-25T02:19:32.145Z,6.30
2022-07-25T02:21:59.029Z,5.30
2022-07-25T02:24:25.932Z,5.47
2022-07-25T02:26:52.676Z,5.63
2022-07-25T02:29:19.368Z,5.50
2022-07-25T02:31:49.003Z,5.87
2022-07-25T02:34:15.737Z,5.50
2022-07-25T02:36:42.429Z,6.03
2022-07-25T02:39:09.144Z,6.37
2022-07-25T02:41:35.907Z,6.53
2022-07-25T02:44:02.952Z,5.87
2022-07-25T02:46:29.784Z,6.07
2022-07-25T02:48:56.637Z,5.63
2022-07-25T02:51:23.496Z,5.73
2022-07-25T02:53:57.772Z,5.47
2022-07-25T02:56:26.317Z,5.50
2022-07-25T02:58:56.718Z,6.07
2022-07-25T03:01:23.519Z,5.83
2022-07-25T03:03:50.666Z,6.10
2022-07-25T03:06:18.277Z,5.97
2022-07-25T03:08:45.228Z,5.43
2022-07-25T03:11:13.694Z,5.80
2022-07-25T03:13:40.558Z,6.30
2022-07-25T03:16:07.818Z,5.70
2022-07-25T03:18:34.616Z,5.53
2022-07-25T03:21:01.426Z,6.00
2022-07-25T03:23:28.464Z,6.10
2022-07-25T03:25:56.090Z,6.13
2022-07-25T03:28:24.632Z,6.70
2022-07-25T03:30:52.132Z,6.83
2022-07-25T03:33:18.949Z,6.00
2022-07-25T03:35:45.785Z,6.20
2022-07-25T03:38:12.546Z,6.23
2022-07-25T03:40:39.564Z,6.40
2022-07-25T03:43:06.716Z,6.00
2022-07-25T03:45:33.563Z,6.03
2022-07-25T03:48:00.373Z,5.80
2022-07-25T03:50:27.170Z,5.40
2022-07-25T03:52:53.928Z,5.77
2022-07-25T03:55:20.703Z,5.40
2022-07-25T03:57:47.475Z,5.97
2022-07-25T04:00:15.573Z,5.57
2022-07-25T04:02:42.483Z,6.23
2022-07-25T04:05:10.152Z,5.80
2022-07-25T04:07:38.223Z,6.30
2022-07-25T04:10:06.907Z,6.00
2022-07-25T04:12:33.742Z,5.97
2022-07-25T04:15:00.542Z,5.83
2022-07-25T04:17:27.293Z,5.87
2022-07-25T04:19:54.107Z,5.63
2022-07-25T04:22:22.225Z,5.50
2022-07-25T04:24:48.996Z,5.53
2022-07-25T04:27:15.751Z,5.27
2022-07-25T04:29:42.498Z,5.00
2022-07-25T04:32:09.341Z,5.20
2022-07-25T04:34:36.104Z,5.33
2022-07-25T04:37:02.870Z,5.33
2022-07-25T04:39:29.608Z,5.37
2022-07-25T04:41:56.446Z,5.93
2022-07-25T04:44:23.272Z,6.10
2022-07-25T04:46:50.002Z,6.30
2022-07-25T04:49:16.854Z,5.70
2022-07-25T04:51:43.712Z,6.27
2022-07-25T04:54:10.567Z,6.23
2022-07-25T04:56:37.373Z,6.10
2022-07-25T04:59:06.867Z,6.30
2022-07-25T05:01:34.932Z,9.13
2022-07-25T05:04:02.144Z,7.40
2022-07-25T05:06:28.922Z,6.60
2022-07-25T05:08:55.813Z,10.20
2022-07-25T05:11:22.603Z,9.73
2022-07-25T05:13:49.406Z,8.50
2022-07-25T05:16:16.283Z,7.90
2022-07-25T05:18:43.163Z,8.03
2022-07-25T05:21:14.188Z,8.40
2022-07-25T05:23:41.177Z,8.47
2022-07-25T05:26:08.200Z,9.47
2022-07-25T05:28:35.144Z,6.13
2022-07-25T05:31:02.111Z,7.73
2022-07-25T05:33:28.913Z,6.43
2022-07-25T05:35:55.737Z,6.47
2022-07-25T05:38:22.507Z,6.97
2022-07-25T05:40:52.036Z,6.67
2022-07-25T05:43:19.659Z,6.57
2022-07-25T05:45:47.533Z,7.60
2022-07-25T05:48:15.165Z,7.00
2022-07-25T05:50:42.014Z,7.63
2022-07-25T05:53:08.766Z,7.20
2022-07-25T05:55:35.623Z,9.63
2022-07-25T05:58:07.554Z,6.97
2022-07-25T06:00:34.336Z,7.50
2022-07-25T06:03:01.206Z,7.20
2022-07-25T06:05:28.394Z,9.47
2022-07-25T06:07:55.332Z,8.90
2022-07-25T06:10:23.292Z,7.57
2022-07-25T06:12:50.096Z,7.60
2022-07-25T06:15:22.300Z,6.97
2022-07-25T06:17:49.952Z,7.40
2022-07-25T06:20:17.286Z,7.13
2022-07-25T06:22:44.088Z,6.63
2022-07-25T06:25:11.020Z,6.97
2022-07-25T06:27:38.602Z,6.90
2022-07-25T06:30:18.641Z,13.10
2022-07-25T06:32:47.317Z,7.67
2022-07-25T06:35:14.237Z,8.20
2022-07-25T06:37:41.416Z,7.17
2022-07-25T06:40:09.136Z,7.03
2022-07-25T06:42:40.308Z,11.17
2022-07-25T06:45:11.866Z,8.50
2022-07-25T06:47:40.348Z,7.23
2022-07-25T06:50:11.294Z,7.47
2022-07-25T06:52:39.915Z,6.50
2022-07-25T06:55:08.527Z,7.00
2022-07-25T06:57:36.337Z,6.97
2022-07-25T07:00:09.652Z,7.10
2022-07-25T07:02:49.809Z,6.80
2022-07-25T07:05:16.818Z,6.73
2022-07-25T07:07:47.556Z,6.90
2022-07-25T07:10:15.759Z,7.53
2022-07-25T07:12:42.810Z,7.30
2022-07-25T07:15:10.236Z,7.23
2022-07-25T07:17:37.647Z,7.20
2022-07-25T07:20:06.652Z,6.93
2022-07-25T07:22:43.054Z,6.43
2022-07-25T07:25:10.491Z,6.53
2022-07-25T07:27:38.739Z,6.90
2022-07-25T07:30:06.412Z,7.30
2022-07-25T07:32:34.398Z,6.50
2022-07-25T07:35:02.110Z,7.53
2022-07-25T07:37:36.607Z,7.00
2022-07-25T07:40:06.669Z,7.00
2022-07-25T07:42:42.846Z,7.20
2022-07-25T07:45:24.437Z,7.77
2022-07-25T07:47:53.568Z,6.67
2022-07-25T07:50:26.308Z,6.83
2022-07-25T07:52:55.392Z,7.37
2022-07-25T07:55:41.763Z,7.23
2022-07-25T07:58:09.255Z,6.33
2022-07-25T08:00:39.284Z,6.87
2022-07-25T08:03:09.296Z,6.90
2022-07-25T08:05:43.078Z,6.90
2022-07-25T08:08:12.846Z,7.40
2022-07-25T08:10:42.989Z,6.77
2022-07-25T08:13:21.342Z,6.60
2022-07-25T08:15:51.788Z,7.17
2022-07-25T08:18:20.777Z,7.60
2022-07-25T08:20:49.081Z,7.33
2022-07-25T08:23:18.001Z,7.73
2022-07-25T08:25:46.181Z,6.50
2022-07-25T08:28:14.651Z,7.60
2022-07-25T08:30:42.945Z,7.20
2022-07-25T08:33:13.979Z,7.17
2022-07-25T08:35:46.546Z,6.73
2022-07-25T08:38:13.670Z,7.07
2022-07-25T08:40:41.897Z,7.17
2022-07-25T08:43:13.094Z,7.23
2022-07-25T08:45:49.933Z,7.30
2022-07-25T08:48:23.943Z,7.10
2022-07-25T08:50:52.115Z,6.87
2022-07-25T08:53:37.159Z,6.90
2022-07-25T08:56:20.480Z,6.67
2022-07-25T08:58:49.799Z,7.00
2022-07-25T09:01:17.300Z,6.47
2022-07-25T09:03:45.025Z,6.70
2022-07-25T09:06:23.126Z,10.70
2022-07-25T09:08:57.826Z,6.70
2022-07-25T09:11:34.127Z,6.47
2022-07-25T09:14:09.158Z,7.40
2022-07-25T09:16:44.471Z,6.63
2022-07-25T09:19:20.481Z,6.50
2022-07-25T09:22:10.338Z,6.60
2022-07-25T09:24:44.799Z,6.43
2022-07-25T09:27:13.085Z,6.80
2022-07-25T09:29:42.743Z,6.00
2022-07-25T09:32:21.517Z,6.77
2022-07-25T09:34:50.908Z,6.47
2022-07-25T09:37:25.457Z,6.83
2022-07-25T09:39:52.919Z,6.80
2022-07-25T09:42:29.867Z,6.90
2022-07-25T09:45:05.752Z,6.47
2022-07-25T09:47:36.704Z,6.40
2022-07-25T09:50:06.604Z,6.23
2022-07-25T09:52:35.870Z,6.07
2022-07-25T09:55:06.502Z,6.20
2022-07-25T09:57:34.167Z,6.30
2022-07-25T10:00:02.231Z,6.33
2022-07-25T10:02:48.895Z,6.40
2022-07-25T10:05:40.044Z,6.10
2022-07-25T10:08:09.005Z,6.90
2022-07-25T10:10:43.495Z,6.30
2022-07-25T10:13:15.390Z,6.67
2022-07-25T10:15:47.821Z,6.50
2022-07-25T10:18:16.325Z,6.43
2022-07-25T10:20:45.345Z,6.20
2022-07-25T10:23:19.989Z,6.30
2022-07-25T10:25:49.126Z,6.87
2022-07-25T10:28:20.269Z,6.57
2022-07-25T10:30:47.739Z,6.73
2022-07-25T10:33:19.369Z,6.27
2022-07-25T10:35:46.140Z,6.30
2022-07-25T10:38:13.309Z,5.77
2022-07-25T10:40:44.049Z,6.33
2022-07-25T10:43:22.395Z,6.13
2022-07-25T10:45:52.303Z,5.73
2022-07-25T10:48:27.234Z,6.47
2022-07-25T10:51:03.779Z,6.40
2022-07-25T10:53:32.263Z,6.07
2022-07-25T10:56:10.238Z,6.53
2022-07-25T10:58:46.077Z,6.43
2022-07-25T11:01:16.308Z,5.17
2022-07-25T11:03:47.297Z,5.53
2022-07-25T11:06:15.573Z,5.50
2022-07-25T11:08:44.097Z,8.20
2022-07-25T11:11:12.304Z,6.43
2022-07-25T11:13:42.694Z,6.47
2022-07-25T11:16:10.500Z,5.83
2022-07-25T11:18:40.345Z,5.77
2022-07-25T11:21:08.993Z,5.60
2022-07-25T11:23:36.819Z,5.80
2022-07-25T11:26:14.660Z,5.80
2022-07-25T11:28:46.298Z,5.50
2022-07-25T11:31:15.803Z,5.30
2022-07-25T11:33:47.971Z,5.97
2022-07-25T11:36:16.951Z,5.57
2022-07-25T11:38:51.016Z,5.77
2022-07-25T11:41:29.629Z,5.30
2022-07-25T11:43:57.458Z,6.40
2022-07-25T11:46:24.357Z,5.93
2022-07-25T11:48:51.409Z,5.40
2022-07-25T11:51:19.650Z,5.17
2022-07-25T11:53:49.795Z,5.60
2022-07-25T11:56:41.465Z,5.23
2022-07-25T11:59:07.757Z,5.67
2022-07-25T12:01:37.538Z,6.00
2022-07-25T12:04:16.050Z,5.67
2022-07-25T12:06:45.720Z,5.57
2022-07-25T12:09:21.368Z,5.40
2022-07-25T12:11:50.445Z,5.70
2022-07-25T12:14:17.866Z,6.37
2022-07-25T12:16:45.128Z,5.30
2022-07-25T12:19:20.578Z,5.20
2022-07-25T12:21:49.243Z,4.53
2022-07-25T12:24:16.429Z,4.57
2022-07-25T12:26:43.444Z,4.63
2022-07-25T12:29:10.820Z,4.27
2022-07-25T12:31:39.160Z,4.47
2022-07-25T12:34:06.987Z,4.83
2022-07-25T12:36:38.393Z,3.93
2022-07-25T12:39:06.358Z,4.30
2022-07-25T12:41:34.159Z,4.00
2022-07-25T12:44:02.773Z,3.77
2022-07-25T12:46:30.289Z,3.53
2022-07-25T12:48:57.346Z,3.80
2022-07-25T12:51:24.793Z,3.63
2022-07-25T12:53:51.513Z,3.90
2022-07-25T12:56:18.757Z,3.53
2022-07-25T12:58:45.795Z,3.83
2022-07-25T13:01:14.044Z,3.70
2022-07-25T13:03:40.924Z,3.90
2022-07-25T13:06:08.687Z,3.80
2022-07-25T13:08:37.992Z,3.73
2022-07-25T13:11:05.167Z,4.30
2022-07-25T13:13:32.047Z,4.10
2022-07-25T13:16:00.165Z,4.57
2022-07-25T13:18:29.109Z,4.27
2022-07-25T13:20:56.601Z,4.37
2022-07-25T13:23:24.676Z,3.70
2022-07-25T13:25:52.681Z,3.97
2022-07-25T13:28:19.691Z,3.63
2022-07-25T13:30:48.991Z,4.13
2022-07-25T13:33:16.863Z,3.77
2022-07-25T13:35:44.419Z,3.87
2022-07-25T13:38:12.351Z,4.17
2022-07-25T13:40:44.875Z,3.90
2022-07-25T13:43:13.897Z,4.27
2022-07-25T13:45:43.987Z,4.00
2022-07-25T13:48:28.856Z,3.83
2022-07-25T13:50:58.312Z,3.97
2022-07-25T13:53:29.949Z,3.67
2022-07-25T13:55:59.117Z,3.97
2022-07-25T13:58:26.550Z,3.80
2022-07-25T14:00:54.243Z,3.43
2022-07-25T14:03:22.460Z,3.97
2022-07-25T14:05:49.700Z,3.97
2022-07-25T14:08:17.078Z,3.60
2022-07-25T14:10:44.231Z,4.43
2022-07-25T14:13:13.128Z,3.50
2022-07-25T14:15:40.815Z,3.87
2022-07-25T14:18:07.946Z,3.83
2022-07-25T14:20:35.741Z,3.97
2022-07-25T14:23:03.171Z,3.77
2022-07-25T14:25:30.327Z,4.00
2022-07-25T14:27:59.626Z,4.83
2022-07-25T14:30:27.360Z,4.27
2022-07-25T14:32:55.642Z,4.27
2022-07-25T14:35:23.182Z,3.73
2022-07-25T14:37:51.029Z,4.17
2022-07-25T14:40:18.698Z,3.87
2022-07-25T14:42:46.001Z,3.97
2022-07-25T14:45:13.561Z,3.97
2022-07-25T14:47:42.598Z,4.17
2022-07-25T14:50:11.163Z,6.70
2022-07-25T14:52:39.436Z,4.23
2022-07-25T14:55:07.458Z,3.57
2022-07-25T14:57:34.669Z,4.37
2022-07-25T15:00:04.914Z,4.03
2022-07-25T15:02:32.681Z,4.00
2022-07-25T15:04:59.654Z,4.30
2022-07-25T15:07:26.627Z,4.30
2022-07-25T15:09:53.625Z,4.50
2022-07-25T15:12:21.144Z,4.63
2022-07-25T15:14:48.319Z,4.00
2022-07-25T15:17:15.117Z,3.90
2022-07-25T15:19:41.965Z,3.60
2022-07-25T15:22:09.137Z,3.80
2022-07-25T15:25:04.414Z,3.77
2022-07-25T15:27:22.878Z,4.00
2022-07-25T15:29:50.263Z,3.57
2022-07-25T15:32:17.617Z,3.87
2022-07-25T15:34:45.443Z,3.93
2022-07-25T15:37:12.601Z,4.37
2022-07-25T15:39:39.610Z,3.83
2022-07-25T15:42:06.491Z,3.83
2022-07-25T15:44:33.526Z,3.27
2022-07-25T15:47:00.476Z,4.10
2022-07-25T15:49:27.355Z,3.40
2022-07-25T15:51:56.308Z,4.03
2022-07-25T15:54:26.386Z,3.53
2022-07-25T15:56:56.615Z,3.77
2022-07-25T15:59:24.008Z,3.80
2022-07-25T16:01:51.802Z,3.50
2022-07-25T16:04:19.581Z,4.07
2022-07-25T16:06:47.158Z,3.70
2022-07-25T16:09:16.352Z,4.07
2022-07-25T16:11:43.698Z,4.40
2022-07-25T16:14:11.538Z,4.30
2022-07-25T16:16:39.726Z,4.27
2022-07-25T16:19:08.876Z,3.60
2022-07-25T16:21:36.042Z,3.47
2022-07-25T16:24:04.639Z,3.80
2022-07-25T16:26:31.649Z,3.70
2022-07-25T16:28:58.766Z,3.93
2022-07-25T16:31:26.683Z,3.57
2022-07-25T16:33:53.638Z,4.10
2022-07-25T16:36:20.554Z,4.03
2022-07-25T16:38:49.375Z,3.80
2022-07-25T16:41:16.328Z,3.60
2022-07-25T16:43:44.403Z,4.20
2022-07-25T16:46:11.958Z,4.30
2022-07-25T16:48:39.329Z,4.33
2022-07-25T16:51:07.192Z,4.70
2022-07-25T16:53:35.954Z,4.50
2022-07-25T16:56:04.483Z,4.83
2022-07-25T16:58:31.966Z,4.30
2022-07-25T17:00:59.017Z,4.73
2022-07-25T17:03:26.192Z,4.10
2022-07-25T17:05:54.032Z,3.87
2022-07-25T17:08:20.878Z,4.50
2022-07-25T17:10:48.815Z,4.50
2022-07-25T17:13:15.742Z,4.07
2022-07-25T17:15:44.045Z,4.17
2022-07-25T17:18:11.156Z,4.63
2022-07-25T17:20:38.060Z,4.03
2022-07-25T17:23:04.834Z,4.20
2022-07-25T17:25:31.793Z,4.17
2022-07-25T17:27:58.727Z,3.80
2022-07-25T17:30:25.961Z,3.70
2022-07-25T17:32:53.371Z,4.03
2022-07-25T17:35:20.567Z,3.40
2022-07-25T17:37:47.427Z,3.47
2022-07-25T17:40:14.268Z,3.33
2022-07-25T17:42:45.124Z,2.67
2022-07-25T17:45:12.538Z,3.10
2022-07-25T17:47:39.727Z,2.77
2022-07-25T17:50:06.888Z,2.70
2022-07-25T17:52:33.693Z,2.40
2022-07-25T17:55:00.582Z,2.53
2022-07-25T17:57:28.218Z,2.27
2022-07-25T17:59:55.046Z,2.30
2022-07-25T18:02:21.845Z,2.90
2022-07-25T18:04:48.721Z,2.47
2022-07-25T18:07:15.788Z,2.30
2022-07-25T18:09:42.669Z,2.47
2022-07-25T18:12:09.476Z,2.13
2022-07-25T18:14:36.383Z,2.10
2022-07-25T18:17:03.527Z,2.00
2022-07-25T18:19:30.381Z,1.70
2022-07-25T18:21:57.130Z,1.70
2022-07-25T18:24:29.089Z,2.20
2022-07-25T18:26:59.144Z,1.93
2022-07-25T18:29:26.224Z,1.87
2022-07-25T18:31:52.966Z,1.80
2022-07-25T18:34:19.782Z,2.47
2022-07-25T18:36:46.671Z,1.73
2022-07-25T18:39:13.910Z,1.83
2022-07-25T18:41:40.615Z,1.50
2022-07-25T18:44:07.821Z,1.63
2022-07-25T18:46:35.027Z,1.80
2022-07-25T18:49:04.194Z,1.80
2022-07-25T18:51:31.095Z,1.70
2022-07-25T18:53:57.902Z,1.47
2022-07-25T18:56:25.122Z,1.70
2022-07-25T18:58:52.825Z,1.80
2022-07-25T19:01:20.410Z,1.50
2022-07-25T19:03:47.571Z,2.23
2022-07-25T19:06:15.027Z,1.60
2022-07-25T19:08:44.164Z,1.67
2022-07-25T19:11:11.165Z,1.80
2022-07-25T19:13:49.562Z,2.60
2022-07-25T19:16:19.012Z,2.40
2022-07-25T19:18:46.908Z,2.03
2022-07-25T19:21:14.344Z,1.57
2022-07-25T19:23:41.207Z,2.43
2022-07-25T19:26:08.136Z,1.73
2022-07-25T19:28:35.982Z,1.40
2022-07-25T19:31:04.270Z,1.40
2022-07-25T19:33:35.963Z,1.80
2022-07-25T19:36:04.348Z,1.73
2022-07-25T19:38:31.583Z,1.60
2022-07-25T19:40:58.985Z,1.57
2022-07-25T19:43:25.863Z,1.67
2022-07-25T19:45:52.655Z,2.07
2022-07-25T19:48:23.605Z,1.87
2022-07-25T19:50:52.051Z,1.70
2022-07-25T19:53:19.133Z,1.73
2022-07-25T19:55:46.010Z,1.90
2022-07-25T19:58:12.960Z,1.53
2022-07-25T20:00:39.909Z,1.97
2022-07-25T20:03:06.939Z,1.87
2022-07-25T20:05:34.206Z,1.43
2022-07-25T20:08:01.142Z,2.33
2022-07-25T20:10:28.333Z,1.60
2022-07-25T20:12:58.231Z,1.97
2022-07-25T20:15:29.763Z,1.80
2022-07-25T20:17:56.976Z,1.57
2022-07-25T20:20:24.252Z,1.67
2022-07-25T20:22:52.158Z,2.10
2022-07-25T20:25:20.232Z,2.00
2022-07-25T20:27:50.061Z,1.60
2022-07-25T20:30:17.307Z,1.83
2022-07-25T20:32:44.471Z,2.17
2022-07-25T20:35:11.479Z,1.50
2022-07-25T20:37:38.224Z,1.80
2022-07-25T20:40:06.774Z,1.70
2022-07-25T20:42:37.434Z,1.77
2022-07-25T20:45:05.854Z,1.73
2022-07-25T20:47:32.687Z,2.13
2022-07-25T20:49:59.689Z,1.63
2022-07-25T20:52:28.083Z,1.83
2022-07-25T20:54:54.804Z,1.97
2022-07-25T20:57:22.464Z,1.87
2022-07-25T20:59:49.282Z,1.73
2022-07-25T21:02:17.403Z,1.90
2022-07-25T21:04:44.842Z,2.20
2022-07-25T21:07:12.388Z,1.70
2022-07-25T21:09:40.373Z,1.60
2022-07-25T21:12:07.579Z,1.87
2022-07-25T21:14:34.708Z,1.90
2022-07-25T21:17:01.672Z,1.67
2022-07-25T21:19:29.759Z,1.37
2022-07-25T21:21:56.956Z,2.33
2022-07-25T21:24:24.037Z,1.77
2022-07-25T21:26:51.596Z,1.87
2022-07-25T21:29:18.391Z,1.70
2022-07-25T21:31:45.545Z,1.70
2022-07-25T21:34:12.277Z,1.97
2022-07-25T21:36:39.097Z,1.80
2022-07-25T21:39:06.043Z,2.07
2022-07-25T21:41:32.948Z,1.90
2022-07-25T21:44:00.640Z,1.67
2022-07-25T21:46:27.667Z,2.00
2022-07-25T21:49:13.812Z,2.00
2022-07-25T21:51:41.338Z,1.80
2022-07-25T21:54:09.770Z,1.67
2022-07-25T21:56:36.550Z,1.97
2022-07-25T21:59:03.487Z,1.70
2022-07-25T22:01:30.380Z,1.90
2022-07-25T22:03:57.322Z,1.70
2022-07-25T22:06:24.086Z,1.87
2022-07-25T22:08:50.987Z,1.53
2022-07-25T22:11:38.382Z,1.90
2022-07-25T22:14:04.439Z,1.63
2022-07-25T22:16:31.321Z,2.27
2022-07-25T22:18:58.245Z,1.70
2022-07-25T22:21:25.019Z,1.90
2022-07-25T22:23:51.711Z,1.70
2022-07-25T22:26:20.220Z,1.53
2022-07-25T22:28:48.204Z,2.03
2022-07-25T22:31:15.216Z,1.70
2022-07-25T22:33:42.353Z,1.93
2022-07-25T22:36:09.481Z,1.70
2022-07-25T22:38:36.599Z,1.40
2022-07-25T22:41:03.454Z,1.97
2022-07-25T22:43:53.141Z,2.23
2022-07-25T22:46:16.995Z,1.60
2022-07-25T22:48:43.860Z,1.90
2022-07-25T22:51:10.617Z,1.60
2022-07-25T22:53:37.436Z,1.80
2022-07-25T22:56:04.467Z,1.60
2022-07-25T22:58:31.215Z,1.60
2022-07-25T23:00:57.909Z,1.30
2022-07-25T23:03:24.724Z,1.93
2022-07-25T23:05:57.457Z,1.63
2022-07-25T23:08:24.254Z,1.60
2022-07-25T23:10:51.000Z,1.60
2022-07-25T23:13:17.728Z,1.80
2022-07-25T23:15:50.121Z,1.90
2022-07-25T23:18:18.448Z,1.70
2022-07-25T23:20:45.136Z,1.90
2022-07-25T23:23:12.966Z,1.47
2022-07-25T23:25:39.919Z,1.90
2022-07-25T23:28:06.933Z,1.73
2022-07-25T23:30:38.200Z,1.50
2022-07-25T23:33:07.786Z,1.87
2022-07-25T23:35:35.147Z,1.70
2022-07-25T23:38:02.493Z,1.30
2022-07-25T23:40:29.668Z,1.40
2022-07-25T23:42:56.480Z,1.40
2022-07-25T23:45:26.354Z,1.70
2022-07-25T23:47:55.524Z,1.60
2022-07-25T23:50:22.721Z,2.00
2022-07-25T23:52:49.547Z,1.60
2022-07-25T23:55:16.318Z,1.43
2022-07-25T23:57:43.791Z,2.07
